Time;durP1;ratioP1;P1;durP2;ratioP2;P2;SDS_P1;SDS_P2;PMS_P1;PMS_P2;Temp;Humidity;BMP_temperature;BMP_pressure;BME280_temperature;BME280_humidity;BME280_pressure;Samples;Min_cycle;Max_cycle;Signal;HPM_P1;HPM_P2
2021/01/20 00:00:03;;;;;;;;;;;;;;;;;;5046991;28;20458;-85
2021/01/20 00:02:29;;;;;;;;;;;;;;;;;;5052657;28;20386;-83
2021/01/20 00:04:55;;;;;;;;;;;;;;;;;;5050556;28;20899;-84
2021/01/20 00:07:22;;;;;;;;;;;;;;;;;;5048227;28;20387;-85
2021/01/20 00:09:48;;;;;;;;;;;;;;;;;;5041556;28;20381;-84
2021/01/20 00:12:15;;;;;;;;;;;;;;;;;;5040447;28;20408;-83
2021/01/20 00:14:41;;;;;;;;;;;;;;;;;;5045892;28;20383;-84
2021/01/20 00:17:07;;;;;;;;;;;;;;;;;;5049412;28;20376;-83
2021/01/20 00:19:34;;;;;;;;;;;;;;;;;;5060440;28;20392;-83
2021/01/20 00:22:00;;;;;;;;;;;;;;;;;;5041273;28;20396;-84
2021/01/20 00:24:26;;;;;;;;;;;;;;;;;;5046733;28;20388;-84
2021/01/20 00:26:53;;;;;;;;;;;;;;;;;;5048584;28;20846;-84
2021/01/20 00:29:19;;;;;;;;;;;;;;;;;;5041784;28;20394;-83
2021/01/20 00:31:46;;;;;;;;;;;;;;;;;;5042989;28;20407;-85
2021/01/20 00:34:12;;;;;;;;;;;;;;;;;;5042759;28;20384;-84
2021/01/20 00:36:39;;;;;;;;;;;;;;;;;;5040226;28;20450;-84
2021/01/20 00:39:05;;;;;;;;;;;;;;;;;;5047236;28;20381;-85
2021/01/20 00:41:31;;;;;;;;;;;;;;;;;;5047338;28;20392;-84
2021/01/20 00:43:58;;;;;;;;;;;;;;;;;;5042365;28;20730;-84
2021/01/20 00:46:24;;;;;;;;;;;;;;;;;;5053160;28;20457;-84
2021/01/20 00:48:51;;;;;;;;;;;;;;;;;;5043497;28;20391;-84
2021/01/20 00:51:17;;;;;;;;;;;;;;;;;;5070072;28;20388;-85
2021/01/20 00:53:43;;;;;;;;;;;;;;;;;;5062110;28;20380;-85
2021/01/20 00:56:11;;;;;;;;;;;;;;;;;;5048723;28;20409;-85
2021/01/20 00:58:38;;;;;;;;;;;;;;;;;;5054257;28;20420;-85
2021/01/20 01:01:04;;;;;;;;;;;;;;;;;;5056614;28;20399;-85
2021/01/20 01:03:31;;;;;;;;;;;;;;;;;;5054542;28;20388;-84
2021/01/20 01:05:57;;;;;;;;;;;;;;;;;;5046570;28;20428;-85
2021/01/20 01:08:25;;;;;;;;;;;;;;;;;;5057216;28;20439;-85
2021/01/20 01:10:51;;;;;;;;;;;;;;;;;;5050671;28;20397;-84
2021/01/20 01:13:18;;;;;;;;;;;;;;;;;;5052473;28;20385;-84
2021/01/20 01:15:44;;;;;;;;;;;;;;;;;;5055901;28;20404;-84
2021/01/20 01:18:10;;;;;;;;;;;;;;;;;;5073603;28;20385;-84
2021/01/20 01:20:37;;;;;;;;;;;;;;;;;;5063352;28;20391;-84
2021/01/20 01:23:03;;;;;;;;;;;;;;;;;;5038927;28;20406;-84
2021/01/20 01:25:29;;;;;;;;;;;;;;;;;;5049017;28;20485;-85
2021/01/20 01:27:56;;;;;;;;;;;;;;;;;;5057045;28;20395;-84
2021/01/20 01:30:22;;;;;;;;;;;;;;;;;;5055611;28;20389;-85
2021/01/20 01:32:49;;;;;;;;;;;;;;;;;;5055772;28;20470;-84
2021/01/20 01:35:15;;;;;;;;;;;;;;;;;;5047735;28;20419;-85
2021/01/20 01:37:41;;;;;;;;;;;;;;;;;;5041002;28;20767;-85
2021/01/20 01:40:08;;;;;;;;;;;;;;;;;;5051288;28;20392;-85
2021/01/20 01:42:34;;;;;;;;;;;;;;;;;;5070703;28;20369;-83
2021/01/20 01:45:00;;;;;;;;;;;;;;;;;;5054405;28;20759;-85
2021/01/20 01:47:27;;;;;;;;;;;;;;;;;;5038256;28;20388;-84
2021/01/20 01:49:56;;;;;;;;;;;;;;;;;;5041279;28;20845;-84
2021/01/20 01:52:22;;;;;;;;;;;;;;;;;;5053741;28;20396;-84
2021/01/20 01:54:48;;;;;;;;;;;;;;;;;;5046722;28;20405;-84
2021/01/20 01:57:15;;;;;;;;;;;;;;;;;;5046097;28;20380;-85
2021/01/20 01:59:41;;;;;;;;;;;;;;;;;;5048241;28;20385;-84
2021/01/20 02:02:07;;;;;;;;;;;;;;;;;;5046746;28;20394;-84
2021/01/20 02:04:34;;;;;;;;;;;;;;;;;;5050966;28;20810;-84
2021/01/20 02:07:00;;;;;;;;;;;;;;;;;;5070563;28;20378;-83
2021/01/20 02:09:26;;;;;;;;;;;;;;;;;;5062866;28;20387;-83
2021/01/20 02:11:53;;;;;;;;;;;;;;;;;;5051407;28;20456;-84
2021/01/20 02:14:19;;;;;;;;;;;;;;;;;;5039625;28;20398;-84
2021/01/20 02:16:46;;;;;;;;;;;;;;;;;;5063395;28;20384;-82
2021/01/20 02:19:12;;;;;;;;;;;;;;;;;;5062002;28;20384;-84
2021/01/20 02:21:38;;;;;;;;;;;;;;;;;;5047814;28;20384;-85
2021/01/20 02:24:05;;;;;;;;;;;;;;;;;;5053428;28;20388;-85
2021/01/20 02:26:31;;;;;;;;;;;;;;;;;;5052334;28;20427;-85
2021/01/20 02:28:57;;;;;;;;;;;;;;;;;;5048770;28;20387;-85
2021/01/20 02:31:24;;;;;;;;;;;;;;;;;;5036599;28;20403;-84
2021/01/20 02:33:50;;;;;;;;;;;;;;;;;;5044662;28;20445;-84
2021/01/20 02:36:16;;;;;;;;;;;;;;;;;;5051241;28;20411;-84
2021/01/20 02:38:43;;;;;;;;;;;;;;;;;;5062674;28;20377;-83
2021/01/20 02:41:09;;;;;;;;;;;;;;;;;;5068180;28;20755;-85
2021/01/20 02:43:36;;;;;;;;;;;;;;;;;;5054830;28;20388;-84
2021/01/20 02:46:02;;;;;;;;;;;;;;;;;;5051328;28;20407;-85
2021/01/20 02:48:28;;;;;;;;;;;;;;;;;;5044069;28;20410;-83
2021/01/20 02:50:55;;;;;;;;;;;;;;;;;;5042362;28;20407;-84
2021/01/20 02:53:21;;;;;;;;;;;;;;;;;;5042741;28;20422;-84
2021/01/20 02:55:47;;;;;;;;;;;;;;;;;;5054543;28;20412;-85
2021/01/20 02:58:14;;;;;;;;;;;;;;;;;;5041775;28;20417;-84
2021/01/20 03:00:40;;;;;;;;;;;;;;;;;;5048593;28;20434;-84
2021/01/20 03:03:06;;;;;;;;;;;;;;;;;;5045399;28;20387;-85
2021/01/20 03:05:33;;;;;;;;;;;;;;;;;;5039903;28;20846;-84
2021/01/20 03:07:59;;;;;;;;;;;;;;;;;;5051901;28;20396;-84
2021/01/20 03:10:26;;;;;;;;;;;;;;;;;;5041491;28;20380;-84
2021/01/20 03:12:52;;;;;;;;;;;;;;;;;;5056286;28;20916;-84
2021/01/20 03:15:18;;;;;;;;;;;;;;;;;;5041303;28;20453;-84
2021/01/20 03:17:45;;;;;;;;;;;;;;;;;;5050468;28;20411;-84
2021/01/20 03:20:11;;;;;;;;;;;;;;;;;;5042845;28;20388;-82
2021/01/20 03:22:38;;;;;;;;;;;;;;;;;;5045098;28;20392;-83
2021/01/20 03:25:04;;;;;;;;;;;;;;;;;;5040785;28;20403;-84
2021/01/20 03:27:30;;;;;;;;;;;;;;;;;;5039272;28;20838;-84
2021/01/20 03:29:57;;;;;;;;;;;;;;;;;;5048766;28;20392;-85
2021/01/20 03:32:23;;;;;;;;;;;;;;;;;;5046615;28;20464;-84
2021/01/20 03:34:50;;;;;;;;;;;;;;;;;;5047629;28;20414;-84
2021/01/20 03:37:17;;;;;;;;;;;;;;;;;;5056514;28;20424;-83
2021/01/20 03:39:43;;;;;;;;;;;;;;;;;;5039718;28;20388;-84
2021/01/20 03:42:10;;;;;;;;;;;;;;;;;;5036863;28;20391;-83
2021/01/20 03:44:36;;;;;;;;;;;;;;;;;;5049600;28;20391;-84
2021/01/20 03:47:02;;;;;;;;;;;;;;;;;;5041882;28;20384;-85
2021/01/20 03:49:29;;;;;;;;;;;;;;;;;;5051997;28;20385;-84
2021/01/20 03:51:55;;;;;;;;;;;;;;;;;;5044301;28;20396;-85
2021/01/20 03:54:21;;;;;;;;;;;;;;;;;;5040595;28;20410;-84
2021/01/20 03:56:48;;;;;;;;;;;;;;;;;;5047146;28;20462;-84
2021/01/20 03:59:14;;;;;;;;;;;;;;;;;;5049130;28;20390;-84
2021/01/20 04:01:40;;;;;;;;;;;;;;;;;;5047582;28;20399;-84
2021/01/20 04:04:07;;;;;;;;;;;;;;;;;;5045038;28;20377;-84
2021/01/20 04:06:33;;;;;;;;;;;;;;;;;;5049306;28;20403;-84
2021/01/20 04:09:00;;;;;;;;;;;;;;;;;;5046090;28;20401;-84
2021/01/20 04:11:26;;;;;;;;;;;;;;;;;;5044584;28;20403;-83
2021/01/20 04:13:52;;;;;;;;;;;;;;;;;;5045460;28;20380;-83
2021/01/20 04:16:19;;;;;;;;;;;;;;;;;;5056033;28;20485;-84
2021/01/20 04:18:45;;;;;;;;;;;;;;;;;;5055674;28;20380;-84
2021/01/20 04:21:12;;;;;;;;;;;;;;;;;;5050622;28;20745;-84
2021/01/20 04:23:38;;;;;;;;;;;;;;;;;;5046440;28;20459;-84
2021/01/20 04:26:05;;;;;;;;;;;;;;;;;;5058467;28;20402;-82
2021/01/20 04:28:31;;;;;;;;;;;;;;;;;;5076484;28;20389;-85
2021/01/20 04:30:57;;;;;;;;;;;;;;;;;;5040706;28;20401;-84
2021/01/20 04:33:24;;;;;;;;;;;;;;;;;;5059594;28;20383;-83
2021/01/20 04:35:50;;;;;;;;;;;;;;;;;;5056152;28;20404;-84
2021/01/20 04:38:16;;;;;;;;;;;;;;;;;;5045315;28;20383;-84
2021/01/20 04:40:43;;;;;;;;;;;;;;;;;;5054021;28;20384;-84
2021/01/20 04:43:09;;;;;;;;;;;;;;;;;;5072351;28;20369;-84
2021/01/20 04:45:36;;;;;;;;;;;;;;;;;;5044296;28;20411;-84
2021/01/20 04:48:02;;;;;;;;;;;;;;;;;;5043898;28;20380;-84
2021/01/20 04:50:28;;;;;;;;;;;;;;;;;;5050177;28;20384;-84
2021/01/20 04:52:55;;;;;;;;;;;;;;;;;;5052508;28;20445;-84
2021/01/20 04:55:21;;;;;;;;;;;;;;;;;;5060156;22;20458;-81
2021/01/20 04:57:47;;;;;;;;;;;;;;;;;;5052258;28;20402;-81
2021/01/20 05:00:14;;;;;;;;;;;;;;;;;;5051702;28;20387;-80
2021/01/20 05:02:40;;;;;;;;;;;;;;;;;;5051723;28;20461;-81
2021/01/20 05:05:07;;;;;;;;;;;;;;;;;;5051668;28;20406;-80
2021/01/20 05:07:33;;;;;;;;;;;;;;;;;;5043156;28;20847;-83
2021/01/20 05:09:59;;;;;;;;;;;;;;;;;;5039647;28;20413;-82
2021/01/20 05:12:26;;;;;;;;;;;;;;;;;;5041166;28;20901;-82
2021/01/20 05:14:52;;;;;;;;;;;;;;;;;;5043352;28;20418;-81
2021/01/20 05:17:18;;;;;;;;;;;;;;;;;;5051430;28;20407;-80
2021/01/20 05:19:45;;;;;;;;;;;;;;;;;;5045027;28;20756;-81
2021/01/20 05:22:11;;;;;;;;;;;;;;;;;;5046410;28;20375;-80
2021/01/20 05:24:38;;;;;;;;;;;;;;;;;;5048229;28;20448;-80
2021/01/20 05:27:04;;;;;;;;;;;;;;;;;;5050140;28;20406;-80
2021/01/20 05:29:30;;;;;;;;;;;;;;;;;;5049473;28;20895;-80
2021/01/20 05:31:57;;;;;;;;;;;;;;;;;;5050123;28;20408;-80
2021/01/20 05:34:23;;;;;;;;;;;;;;;;;;5049797;28;20395;-80
2021/01/20 05:36:49;;;;;;;;;;;;;;;;;;5051221;28;20415;-81
2021/01/20 05:39:16;;;;;;;;;;;;;;;;;;5050597;28;20394;-83
2021/01/20 05:41:42;;;;;;;;;;;;;;;;;;5038295;28;20387;-82
2021/01/20 05:44:09;;;;;;;;;;;;;;;;;;5038937;28;20383;-82
2021/01/20 05:46:35;;;;;;;;;;;;;;;;;;5039274;28;20411;-82
2021/01/20 05:49:01;;;;;;;;;;;;;;;;;;5045418;28;20759;-81
2021/01/20 05:51:28;;;;;;;;;;;;;;;;;;5044229;28;20407;-82
2021/01/20 05:53:55;;;;;;;;;;;;;;;;;;5048922;28;20419;-80
2021/01/20 05:56:21;;;;;;;;;;;;;;;;;;5038413;28;20419;-85
2021/01/20 05:58:48;;;;;;;;;;;;;;;;;;5038276;28;20391;-84
2021/01/20 06:01:14;;;;;;;;;;;;;;;;;;5037567;28;20457;-83
2021/01/20 06:03:41;;;;;;;;;;;;;;;;;;5038154;28;20402;-81
2021/01/20 06:06:07;;;;;;;;;;;;;;;;;;5037606;28;20469;-84
2021/01/20 06:08:33;;;;;;;;;;;;;;;;;;5039084;28;20380;-83
2021/01/20 06:11:00;;;;;;;;;;;;;;;;;;5038810;28;20406;-84
2021/01/20 06:13:26;;;;;;;;;;;;;;;;;;5038627;28;20470;-83
2021/01/20 06:15:52;;;;;;;;;;;;;;;;;;5038048;28;20399;-84
2021/01/20 06:18:19;;;;;;;;;;;;;;;;;;5038329;28;20881;-84
2021/01/20 06:20:45;;;;;;;;;;;;;;;;;;5039094;28;20406;-84
2021/01/20 06:23:12;;;;;;;;;;;;;;;;;;5037850;28;20390;-85
2021/01/20 06:25:38;;;;;;;;;;;;;;;;;;5037920;28;20774;-85
2021/01/20 06:28:04;;;;;;;;;;;;;;;;;;5038612;28;20401;-84
2021/01/20 06:30:34;;;;;;;;;;;;;;;;;;5041780;28;20387;-84
2021/01/20 06:33:00;;;;;;;;;;;;;;;;;;5043150;28;20403;-84
2021/01/20 06:35:27;;;;;;;;;;;;;;;;;;5041249;28;20871;-84
2021/01/20 06:37:53;;;;;;;;;;;;;;;;;;5041903;28;20458;-82
2021/01/20 06:40:20;;;;;;;;;;;;;;;;;;5041415;28;20395;-82
2021/01/20 06:42:46;;;;;;;;;;;;;;;;;;5041020;28;20795;-84
2021/01/20 06:45:13;;;;;;;;;;;;;;;;;;5041504;28;20893;-83
2021/01/20 06:47:39;;;;;;;;;;;;;;;;;;5046755;28;20478;-87
2021/01/20 06:50:06;;;;;;;;;;;;;;;;;;5040964;28;20390;-82
2021/01/20 06:52:32;;;;;;;;;;;;;;;;;;5041555;28;20564;-84
2021/01/20 06:54:59;;;;;;;;;;;;;;;;;;5043702;28;20415;-85
2021/01/20 06:57:26;;;;;;;;;;;;;;;;;;5047254;28;20394;-83
2021/01/20 06:59:52;;;;;;;;;;;;;;;;;;5044510;28;20380;-85
2021/01/20 07:02:19;;;;;;;;;;;;;;;;;;5040975;28;20391;-84
2021/01/20 07:04:47;;;;;;;;;;;;;;;;;;5042187;28;20835;-84
2021/01/20 07:07:14;;;;;;;;;;;;;;;;;;5043708;28;20402;-83
2021/01/20 07:09:40;;;;;;;;;;;;;;;;;;5044057;28;20951;-83
2021/01/20 07:12:07;;;;;;;;;;;;;;;;;;5044383;28;20400;-84
2021/01/20 07:14:33;;;;;;;;;;;;;;;;;;5023574;28;20386;-85
2021/01/20 07:16:59;;;;;;;;;;;;;;;;;;5040898;28;20461;-83
2021/01/20 07:19:26;;;;;;;;;;;;;;;;;;5043150;28;20402;-83
2021/01/20 07:21:52;;;;;;;;;;;;;;;;;;5033500;28;20451;-83
2021/01/20 07:24:19;;;;;;;;;;;;;;;;;;5049032;28;20873;-82
2021/01/20 07:26:45;;;;;;;;;;;;;;;;;;5048105;28;20399;-82
2021/01/20 07:29:12;;;;;;;;;;;;;;;;;;5042779;28;20391;-83
2021/01/20 07:31:38;;;;;;;;;;;;;;;;;;5042110;28;20414;-81
2021/01/20 07:34:04;;;;;;;;;;;;;;;;;;5042724;28;20921;-81
2021/01/20 07:36:31;;;;;;;;;;;;;;;;;;5041917;28;20419;-82
2021/01/20 07:38:58;;;;;;;;;;;;;;;;;;5046214;28;21057;-79
2021/01/20 07:41:25;;;;;;;;;;;;;;;;;;5050239;28;20384;-82
2021/01/20 07:43:51;;;;;;;;;;;;;;;;;;5040987;28;20433;-82
2021/01/20 07:46:18;;;;;;;;;;;;;;;;;;5039955;28;20815;-80
2021/01/20 07:48:44;;;;;;;;;;;;;;;;;;5040499;28;20509;-83
2021/01/20 07:51:10;;;;;;;;;;;;;;;;;;5039601;28;20411;-82
2021/01/20 07:53:37;;;;;;;;;;;;;;;;;;5039786;28;20384;-83
2021/01/20 07:56:03;;;;;;;;;;;;;;;;;;5047302;28;20407;-81
2021/01/20 07:58:30;;;;;;;;;;;;;;;;;;5051466;28;20384;-83
2021/01/20 08:00:56;;;;;;;;;;;;;;;;;;5041628;28;20380;-83
2021/01/20 08:03:22;;;;;;;;;;;;;;;;;;5043079;28;20395;-83
2021/01/20 08:05:49;;;;;;;;;;;;;;;;;;5045995;28;20899;-82
2021/01/20 08:08:15;;;;;;;;;;;;;;;;;;5055666;28;20376;-83
2021/01/20 08:10:42;;;;;;;;;;;;;;;;;;5039701;28;20396;-82
2021/01/20 08:13:08;;;;;;;;;;;;;;;;;;5042792;28;20395;-82
2021/01/20 08:15:34;;;;;;;;;;;;;;;;;;5043521;28;21125;-83
2021/01/20 08:18:01;;;;;;;;;;;;;;;;;;5039570;28;20395;-82
2021/01/20 08:20:27;;;;;;;;;;;;;;;;;;5039876;28;20383;-82
2021/01/20 08:22:54;;;;;;;;;;;;;;;;;;5037991;28;20380;-82
2021/01/20 08:25:20;;;;;;;;;;;;;;;;;;5040665;28;20438;-84
2021/01/20 08:27:46;;;;;;;;;;;;;;;;;;5039220;28;20375;-84
2021/01/20 08:30:13;;;;;;;;;;;;;;;;;;5049884;28;20376;-82
2021/01/20 08:32:40;;;;;;;;;;;;;;;;;;5041345;28;20407;-79
2021/01/20 08:35:06;;;;;;;;;;;;;;;;;;5041177;28;20380;-81
2021/01/20 08:37:33;;;;;;;;;;;;;;;;;;5045121;28;20397;-83
2021/01/20 08:39:59;;;;;;;;;;;;;;;;;;5044117;28;20384;-84
2021/01/20 08:42:27;;;;;;;;;;;;;;;;;;5043659;28;20391;-83
2021/01/20 08:44:53;;;;;;;;;;;;;;;;;;5040752;28;20419;-85
2021/01/20 08:47:20;;;;;;;;;;;;;;;;;;5041370;28;20418;-85
2021/01/20 08:49:46;;;;;;;;;;;;;;;;;;5040784;28;20399;-84
2021/01/20 08:52:13;;;;;;;;;;;;;;;;;;5036789;28;20763;-84
2021/01/20 08:54:40;;;;;;;;;;;;;;;;;;5040827;28;20826;-84
2021/01/20 08:57:06;;;;;;;;;;;;;;;;;;5046430;28;20419;-84
2021/01/20 08:59:32;;;;;;;;;;;;;;;;;;5040912;28;20402;-83
2021/01/20 09:01:59;;;;;;;;;;;;;;;;;;5035952;28;20392;-83
2021/01/20 09:04:26;;;;;;;;;;;;;;;;;;5023952;28;20450;-82
2021/01/20 09:06:52;;;;;;;;;;;;;;;;;;5024247;28;20482;-85
2021/01/20 09:09:19;;;;;;;;;;;;;;;;;;5049178;28;20399;-85
2021/01/20 09:11:45;;;;;;;;;;;;;;;;;;5063173;28;20395;-85
2021/01/20 09:14:12;;;;;;;;;;;;;;;;;;5054698;28;20414;-85
2021/01/20 09:16:38;;;;;;;;;;;;;;;;;;5043112;28;20415;-85
2021/01/20 09:19:07;;;;;;;;;;;;;;;;;;5047913;28;20503;-87
2021/01/20 09:21:34;;;;;;;;;;;;;;;;;;5046685;28;20388;-86
2021/01/20 09:24:00;;;;;;;;;;;;;;;;;;5039884;28;20396;-83
2021/01/20 09:26:27;;;;;;;;;;;;;;;;;;5047548;28;20414;-83
2021/01/20 09:31:34;;;;;;;;;;;;;;;;;;5052331;28;20411;-84
2021/01/20 09:34:01;;;;;;;;;;;;;;;;;;5041499;28;20391;-84
2021/01/20 09:36:28;;;;;;;;;;;;;;;;;;5044243;28;20415;-84
2021/01/20 09:38:59;;;;;;;;;;;;;;;;;;5045083;28;20773;-82
2021/01/20 09:41:25;;;;;;;;;;;;;;;;;;5043614;28;20452;-82
2021/01/20 09:43:53;;;;;;;;;;;;;;;;;;5046422;28;20420;-83
2021/01/20 09:49:00;;;;;;;;;;;;;;;;;;5042343;28;20424;-84
2021/01/20 09:51:28;;;;;;;;;;;;;;;;;;5042008;28;20457;-83
2021/01/20 09:54:00;;;;;;;;;;;;;;;;;;5053557;28;20399;-84
2021/01/20 09:56:26;;;;;;;;;;;;;;;;;;5037889;28;20415;-84
2021/01/20 09:58:53;;;;;;;;;;;;;;;;;;5038087;28;20387;-83
2021/01/20 10:01:19;;;;;;;;;;;;;;;;;;5038432;28;20399;-83
2021/01/20 10:03:46;;;;;;;;;;;;;;;;;;5046629;28;20391;-83
2021/01/20 10:06:12;;;;;;;;;;;;;;;;;;5048865;28;20396;-83
2021/01/20 10:08:38;;;;;;;;;;;;;;;;;;5049565;28;20393;-82
2021/01/20 10:11:07;;;;;;;;;;;;;;;;;;5056044;28;20437;-83
2021/01/20 10:13:36;;;;;;;;;;;;;;;;;;5048428;28;20438;-84
2021/01/20 10:16:02;;;;;;;;;;;;;;;;;;5056700;28;20413;-84
2021/01/20 10:18:29;;;;;;;;;;;;;;;;;;5063453;28;20388;-83
2021/01/20 10:20:55;;;;;;;;;;;;;;;;;;5048321;28;20379;-82
2021/01/20 10:23:24;;;;;;;;;;;;;;;;;;5048603;28;20463;-83
2021/01/20 10:25:51;;;;;;;;;;;;;;;;;;5050714;28;20417;-83
2021/01/20 10:28:17;;;;;;;;;;;;;;;;;;5043876;28;20395;-83
2021/01/20 10:30:44;;;;;;;;;;;;;;;;;;5047302;28;20473;-83
2021/01/20 10:33:10;;;;;;;;;;;;;;;;;;5042185;28;20399;-83
2021/01/20 10:35:37;;;;;;;;;;;;;;;;;;5046897;28;20435;-83
2021/01/20 10:38:03;;;;;;;;;;;;;;;;;;5056339;28;20391;-84
2021/01/20 10:40:30;;;;;;;;;;;;;;;;;;5050143;28;20391;-83
2021/01/20 10:42:57;;;;;;;;;;;;;;;;;;5051493;28;20419;-83
2021/01/20 10:45:27;;;;;;;;;;;;;;;;;;5044211;28;20778;-82
2021/01/20 10:47:55;;;;;;;;;;;;;;;;;;5041563;28;20478;-83
2021/01/20 10:50:21;;;;;;;;;;;;;;;;;;5039896;28;20399;-81
2021/01/20 10:55:30;;;;;;;;;;;;;;;;;;5037613;28;20411;-83
2021/01/20 10:57:58;;;;;;;;;;;;;;;;;;5038676;28;20909;-84
2021/01/20 11:00:24;;;;;;;;;;;;;;;;;;5040026;28;20530;-83
2021/01/20 11:02:51;;;;;;;;;;;;;;;;;;5041412;28;20423;-83
2021/01/20 11:08:15;;;;;;;;;;;;;;;;;;5041403;28;20382;-82
2021/01/20 11:10:42;;;;;;;;;;;;;;;;;;5037790;28;20458;-83
2021/01/20 11:13:09;;;;;;;;;;;;;;;;;;5045056;28;20391;-85
2021/01/20 11:15:35;;;;;;;;;;;;;;;;;;5052152;28;20439;-82
2021/01/20 11:18:02;;;;;;;;;;;;;;;;;;5040640;28;20754;-82
2021/01/20 11:20:28;;;;;;;;;;;;;;;;;;5040468;28;20403;-83
2021/01/20 11:22:55;;;;;;;;;;;;;;;;;;5041084;28;20901;-82
2021/01/20 11:25:21;;;;;;;;;;;;;;;;;;5041057;28;20434;-82
2021/01/20 11:27:47;;;;;;;;;;;;;;;;;;5040269;28;20388;-81
2021/01/20 11:30:14;;;;;;;;;;;;;;;;;;5040166;28;20432;-80
2021/01/20 11:32:40;;;;;;;;;;;;;;;;;;5040029;28;20384;-80
2021/01/20 11:35:06;;;;;;;;;;;;;;;;;;5039480;28;20398;-81
2021/01/20 11:37:33;;;;;;;;;;;;;;;;;;5041268;28;20395;-82
2021/01/20 11:40:03;;;;;;;;;;;;;;;;;;5039454;28;20391;-82
2021/01/20 11:42:30;;;;;;;;;;;;;;;;;;5040684;28;20415;-81
2021/01/20 11:44:57;;;;;;;;;;;;;;;;;;5040261;28;20468;-82
2021/01/20 11:47:23;;;;;;;;;;;;;;;;;;5040102;28;20462;-81
2021/01/20 11:49:50;;;;;;;;;;;;;;;;;;5040165;28;20498;-81
2021/01/20 11:52:17;;;;;;;;;;;;;;;;;;5040162;28;20387;-82
2021/01/20 11:54:43;;;;;;;;;;;;;;;;;;5040068;28;20847;-83
2021/01/20 11:57:10;;;;;;;;;;;;;;;;;;5041185;28;20802;-81
2021/01/20 11:59:36;;;;;;;;;;;;;;;;;;5041256;28;20392;-84
2021/01/20 12:02:02;;;;;;;;;;;;;;;;;;5039439;28;20414;-81
2021/01/20 12:04:29;;;;;;;;;;;;;;;;;;5040454;28;20836;-83
2021/01/20 12:06:55;;;;;;;;;;;;;;;;;;5040664;28;20408;-82
2021/01/20 12:09:22;;;;;;;;;;;;;;;;;;5039764;28;20422;-82
2021/01/20 12:11:48;;;;;;;;;;;;;;;;;;5039272;28;20383;-81
2021/01/20 12:14:14;;;;;;;;;;;;;;;;;;5040024;28;20394;-81
2021/01/20 12:16:41;;;;;;;;;;;;;;;;;;5045357;28;20410;-78
2021/01/20 12:19:07;;;;;;;;;;;;;;;;;;5046069;28;20376;-79
2021/01/20 12:21:34;;;;;;;;;;;;;;;;;;5042447;28;20411;-83
2021/01/20 12:24:00;;;;;;;;;;;;;;;;;;5044730;28;20403;-81
2021/01/20 12:26:27;;;;;;;;;;;;;;;;;;5041416;28;20411;-82
2021/01/20 12:28:53;;;;;;;;;;;;;;;;;;5039814;28;20391;-82
2021/01/20 12:31:19;;;;;;;;;;;;;;;;;;5039330;28;20736;-82
2021/01/20 12:33:46;;;;;;;;;;;;;;;;;;5039384;28;20390;-83
2021/01/20 12:36:12;;;;;;;;;;;;;;;;;;5038954;28;20857;-82
2021/01/20 12:38:39;;;;;;;;;;;;;;;;;;5039122;28;20409;-83
2021/01/20 12:41:05;;;;;;;;;;;;;;;;;;5038880;28;20391;-83
2021/01/20 12:43:32;;;;;;;;;;;;;;;;;;5038195;28;20408;-83
2021/01/20 12:45:58;;;;;;;;;;;;;;;;;;5038861;28;20419;-81
2021/01/20 12:48:24;;;;;;;;;;;;;;;;;;5039094;28;20446;-81
2021/01/20 12:50:51;;;;;;;;;;;;;;;;;;5037972;28;20380;-84
2021/01/20 12:53:17;;;;;;;;;;;;;;;;;;5038595;28;20409;-83
2021/01/20 12:55:44;;;;;;;;;;;;;;;;;;5041368;28;20415;-83
2021/01/20 12:58:10;;;;;;;;;;;;;;;;;;5051833;28;20380;-82
2021/01/20 13:00:36;;;;;;;;;;;;;;;;;;5053220;28;20395;-81
2021/01/20 13:03:03;;;;;;;;;;;;;;;;;;5048629;28;20405;-83
2021/01/20 13:05:29;;;;;;;;;;;;;;;;;;5038142;28;20414;-82
2021/01/20 13:07:56;;;;;;;;;;;;;;;;;;5038249;28;20384;-81
2021/01/20 13:10:23;;;;;;;;;;;;;;;;;;5038351;28;20387;-80
2021/01/20 13:12:49;;;;;;;;;;;;;;;;;;5038693;28;20387;-85
2021/01/20 13:15:16;;;;;;;;;;;;;;;;;;5039333;28;20451;-84
2021/01/20 13:17:42;;;;;;;;;;;;;;;;;;5038460;28;20391;-85
2021/01/20 13:20:08;;;;;;;;;;;;;;;;;;5038934;28;20387;-84
2021/01/20 13:22:35;;;;;;;;;;;;;;;;;;5038350;28;20426;-85
2021/01/20 13:25:01;;;;;;;;;;;;;;;;;;5039972;28;20430;-84
2021/01/20 13:27:28;;;;;;;;;;;;;;;;;;5041107;28;20387;-84
2021/01/20 13:29:54;;;;;;;;;;;;;;;;;;5039289;28;20899;-84
2021/01/20 13:32:21;;;;;;;;;;;;;;;;;;5039582;28;20871;-85
2021/01/20 13:34:47;;;;;;;;;;;;;;;;;;5038661;28;20394;-84
2021/01/20 13:37:13;;;;;;;;;;;;;;;;;;5040464;28;20403;-85
2021/01/20 13:39:40;;;;;;;;;;;;;;;;;;5039554;28;20855;-85
2021/01/20 13:42:06;;;;;;;;;;;;;;;;;;5037616;28;20411;-84
2021/01/20 13:44:33;;;;;;;;;;;;;;;;;;5040136;28;20418;-84
2021/01/20 13:46:59;;;;;;;;;;;;;;;;;;5040576;28;20411;-86
2021/01/20 13:49:26;;;;;;;;;;;;;;;;;;5040637;28;20391;-85
2021/01/20 13:51:52;;;;;;;;;;;;;;;;;;5039753;28;20384;-86
2021/01/20 13:54:19;;;;;;;;;;;;;;;;;;5041829;28;20398;-86
2021/01/20 13:56:45;;;;;;;;;;;;;;;;;;5049463;28;20419;-85
2021/01/20 13:59:12;;;;;;;;;;;;;;;;;;5043498;28;20383;-85
2021/01/20 14:01:38;;;;;;;;;;;;;;;;;;5037122;28;20470;-86
2021/01/20 14:04:04;;;;;;;;;;;;;;;;;;5039592;28;20490;-85
2021/01/20 14:06:31;;;;;;;;;;;;;;;;;;5039556;28;20407;-86
2021/01/20 14:08:57;;;;;;;;;;;;;;;;;;5041363;28;20905;-86
2021/01/20 14:11:24;;;;;;;;;;;;;;;;;;5042713;28;20465;-86
2021/01/20 14:13:50;;;;;;;;;;;;;;;;;;5045611;28;20383;-85
2021/01/20 14:16:16;;;;;;;;;;;;;;;;;;5049444;28;20520;-85
2021/01/20 14:18:43;;;;;;;;;;;;;;;;;;5050034;28;20398;-85
2021/01/20 14:21:10;;;;;;;;;;;;;;;;;;5050823;28;20660;-85
2021/01/20 14:23:39;;;;;;;;;;;;;;;;;;5050138;28;20443;-85
2021/01/20 14:26:05;;;;;;;;;;;;;;;;;;5044251;28;20407;-86
2021/01/20 14:28:32;;;;;;;;;;;;;;;;;;5036384;28;20411;-84
2021/01/20 14:30:58;;;;;;;;;;;;;;;;;;5041494;28;21117;-84
2021/01/20 14:33:25;;;;;;;;;;;;;;;;;;5043697;28;20398;-85
2021/01/20 14:35:51;;;;;;;;;;;;;;;;;;5049978;28;20407;-86
2021/01/20 14:38:19;;;;;;;;;;;;;;;;;;5038948;28;20885;-87
2021/01/20 14:40:46;;;;;;;;;;;;;;;;;;5039990;28;20394;-88
2021/01/20 14:43:14;;;;;;;;;;;;;;;;;;5034883;28;20395;-87
2021/01/20 14:45:44;;;;;;;;;;;;;;;;;;5040000;28;20908;-85
2021/01/20 14:48:11;;;;;;;;;;;;;;;;;;5047598;28;20391;-85
2021/01/20 14:50:38;;;;;;;;;;;;;;;;;;5047816;28;21244;-85
2021/01/20 14:53:06;;;;;;;;;;;;;;;;;;5051790;28;21228;-86
2021/01/20 14:55:32;;;;;;;;;;;;;;;;;;5070604;28;20420;-86
2021/01/20 14:58:00;;;;;;;;;;;;;;;;;;5069028;28;20428;-86
2021/01/20 15:00:26;;;;;;;;;;;;;;;;;;5036010;28;20391;-86
2021/01/20 15:03:00;;;;;;;;;;;;;;;;;;5039654;28;20411;-86
2021/01/20 15:05:27;;;;;;;;;;;;;;;;;;5040881;28;20423;-87
2021/01/20 15:07:53;;;;;;;;;;;;;;;;;;5041254;28;20434;-85
2021/01/20 15:10:20;;;;;;;;;;;;;;;;;;5040595;28;20400;-85
2021/01/20 15:12:46;;;;;;;;;;;;;;;;;;5039312;28;20394;-84
2021/01/20 15:15:14;;;;;;;;;;;;;;;;;;5041988;28;20436;-84
2021/01/20 15:17:40;;;;;;;;;;;;;;;;;;5056920;28;20397;-84
2021/01/20 15:20:08;;;;;;;;;;;;;;;;;;5037317;28;20421;-87
2021/01/20 15:22:35;;;;;;;;;;;;;;;;;;5039030;28;20403;-86
2021/01/20 15:25:01;;;;;;;;;;;;;;;;;;5040416;28;20874;-87
2021/01/20 15:27:28;;;;;;;;;;;;;;;;;;5040121;28;20417;-85
2021/01/20 15:29:54;;;;;;;;;;;;;;;;;;5041678;28;20447;-85
2021/01/20 15:32:20;;;;;;;;;;;;;;;;;;5045089;28;20380;-84
2021/01/20 15:34:47;;;;;;;;;;;;;;;;;;5052236;28;20402;-85
2021/01/20 15:37:13;;;;;;;;;;;;;;;;;;5050045;28;20412;-84
2021/01/20 15:39:40;;;;;;;;;;;;;;;;;;5041538;28;20384;-84
2021/01/20 15:42:06;;;;;;;;;;;;;;;;;;5039737;28;20407;-84
2021/01/20 15:44:32;;;;;;;;;;;;;;;;;;5032874;28;20391;-85
2021/01/20 15:46:59;;;;;;;;;;;;;;;;;;5040993;28;20493;-85
2021/01/20 15:49:26;;;;;;;;;;;;;;;;;;5041146;28;20832;-85
2021/01/20 15:51:53;;;;;;;;;;;;;;;;;;5040168;28;20384;-86
2021/01/20 15:54:19;;;;;;;;;;;;;;;;;;5044605;28;20382;-86
2021/01/20 15:56:47;;;;;;;;;;;;;;;;;;5043861;28;21983;-87
2021/01/20 15:59:14;;;;;;;;;;;;;;;;;;5043272;28;20395;-87
2021/01/20 16:01:40;;;;;;;;;;;;;;;;;;5040789;28;20392;-85
2021/01/20 16:04:13;;;;;;;;;;;;;;;;;;5033169;28;20386;-85
2021/01/20 16:06:42;;;;;;;;;;;;;;;;;;5041123;28;20419;-85
2021/01/20 16:09:10;;;;;;;;;;;;;;;;;;5041130;28;20392;-85
2021/01/20 16:11:36;;;;;;;;;;;;;;;;;;5041002;28;20860;-85
2021/01/20 16:14:03;;;;;;;;;;;;;;;;;;5040284;28;20403;-85
2021/01/20 16:16:29;;;;;;;;;;;;;;;;;;5040863;28;20467;-87
2021/01/20 16:18:55;;;;;;;;;;;;;;;;;;5039641;28;20407;-88
2021/01/20 16:21:22;;;;;;;;;;;;;;;;;;5034210;28;20783;-87
2021/01/20 16:23:48;;;;;;;;;;;;;;;;;;5039702;28;20407;-88
2021/01/20 16:26:15;;;;;;;;;;;;;;;;;;5040138;28;20403;-86
2021/01/20 16:28:41;;;;;;;;;;;;;;;;;;5042489;28;20386;-86
2021/01/20 16:31:08;;;;;;;;;;;;;;;;;;5039843;28;20448;-87
2021/01/20 16:33:34;;;;;;;;;;;;;;;;;;5041134;28;20417;-86
2021/01/20 16:36:01;;;;;;;;;;;;;;;;;;5042493;28;20415;-85
2021/01/20 16:38:27;;;;;;;;;;;;;;;;;;5041105;28;20478;-87
2021/01/20 16:40:54;;;;;;;;;;;;;;;;;;5041068;28;20490;-87
2021/01/20 16:43:20;;;;;;;;;;;;;;;;;;5052112;28;20441;-85
2021/01/20 16:45:49;;;;;;;;;;;;;;;;;;5058044;28;20402;-86
2021/01/20 16:48:15;;;;;;;;;;;;;;;;;;5056402;28;20395;-86
2021/01/20 16:50:41;;;;;;;;;;;;;;;;;;5043607;28;20403;-86